sensor_id;sensor_type;location;lat;lon;timestamp;pressure;altitude;pressure_sealevel;temperature;humidity
51147;BME280;37207;53.060;18.726;2023-09-30T00:01:41;100665.00;;;19.47;64.63
51147;BME280;37207;53.060;18.726;2023-09-30T00:04:07;100670.02;;;19.45;64.70
51147;BME280;37207;53.060;18.726;2023-09-30T00:06:35;100669.41;;;19.43;64.66
51147;BME280;37207;53.060;18.726;2023-09-30T00:09:02;100668.13;;;19.42;64.81
51147;BME280;37207;53.060;18.726;2023-09-30T00:11:29;100667.70;;;19.41;64.98
51147;BME280;37207;53.060;18.726;2023-09-30T00:13:55;100667.80;;;19.39;64.95
51147;BME280;37207;53.060;18.726;2023-09-30T00:16:22;100670.92;;;19.36;65.07
51147;BME280;37207;53.060;18.726;2023-09-30T00:18:49;100674.89;;;19.34;65.24
51147;BME280;37207;53.060;18.726;2023-09-30T00:21:15;100675.87;;;19.31;65.26
51147;BME280;37207;53.060;18.726;2023-09-30T00:23:42;100675.46;;;19.29;65.44
51147;BME280;37207;53.060;18.726;2023-09-30T00:26:08;100673.34;;;19.29;65.51
51147;BME280;37207;53.060;18.726;2023-09-30T00:28:35;100677.55;;;19.29;65.48
51147;BME280;37207;53.060;18.726;2023-09-30T00:31:06;100671.46;;;19.28;65.57
51147;BME280;37207;53.060;18.726;2023-09-30T00:33:35;100669.03;;;19.28;65.58
51147;BME280;37207;53.060;18.726;2023-09-30T00:36:11;100667.15;;;19.27;65.69
51147;BME280;37207;53.060;18.726;2023-09-30T00:38:39;100659.81;;;19.25;65.90
51147;BME280;37207;53.060;18.726;2023-09-30T00:41:06;100654.87;;;19.23;65.99
51147;BME280;37207;53.060;18.726;2023-09-30T00:43:35;100652.09;;;19.22;66.08
51147;BME280;37207;53.060;18.726;2023-09-30T00:46:06;100652.20;;;19.22;66.06
51147;BME280;37207;53.060;18.726;2023-09-30T00:48:37;100645.67;;;19.21;66.13
51147;BME280;37207;53.060;18.726;2023-09-30T00:51:04;100643.52;;;19.22;66.21
51147;BME280;37207;53.060;18.726;2023-09-30T00:53:30;100645.05;;;19.22;66.30
51147;BME280;37207;53.060;18.726;2023-09-30T00:55:58;100646.61;;;19.22;66.37
51147;BME280;37207;53.060;18.726;2023-09-30T00:58:25;100644.52;;;19.21;66.36
51147;BME280;37207;53.060;18.726;2023-09-30T01:00:56;100648.25;;;19.20;66.59
51147;BME280;37207;53.060;18.726;2023-09-30T01:03:23;100646.55;;;19.19;66.69
51147;BME280;37207;53.060;18.726;2023-09-30T01:05:49;100648.70;;;19.18;66.83
51147;BME280;37207;53.060;18.726;2023-09-30T01:08:16;100648.27;;;19.16;66.85
51147;BME280;37207;53.060;18.726;2023-09-30T01:10:44;100648.08;;;19.16;66.89
51147;BME280;37207;53.060;18.726;2023-09-30T01:13:11;100650.38;;;19.15;66.93
51147;BME280;37207;53.060;18.726;2023-09-30T01:15:37;100641.30;;;19.14;67.05
51147;BME280;37207;53.060;18.726;2023-09-30T01:18:04;100645.14;;;19.12;67.13
51147;BME280;37207;53.060;18.726;2023-09-30T01:20:31;100645.01;;;19.11;67.16
51147;BME280;37207;53.060;18.726;2023-09-30T01:22:57;100644.48;;;19.10;67.17
51147;BME280;37207;53.060;18.726;2023-09-30T01:25:24;100641.61;;;19.08;67.34
51147;BME280;37207;53.060;18.726;2023-09-30T01:27:52;100641.36;;;19.06;67.42
51147;BME280;37207;53.060;18.726;2023-09-30T01:30:19;100641.09;;;19.05;67.40
51147;BME280;37207;53.060;18.726;2023-09-30T01:32:45;100643.98;;;19.04;67.45
51147;BME280;37207;53.060;18.726;2023-09-30T01:35:12;100650.02;;;19.04;67.44
51147;BME280;37207;53.060;18.726;2023-09-30T01:37:39;100645.70;;;19.04;67.51
51147;BME280;37207;53.060;18.726;2023-09-30T01:40:06;100646.77;;;19.04;67.57
51147;BME280;37207;53.060;18.726;2023-09-30T01:42:37;100646.61;;;19.03;67.64
51147;BME280;37207;53.060;18.726;2023-09-30T01:45:05;100650.03;;;19.02;67.69
51147;BME280;37207;53.060;18.726;2023-09-30T01:47:31;100646.93;;;19.02;67.66
51147;BME280;37207;53.060;18.726;2023-09-30T01:49:58;100646.65;;;19.00;67.80
51147;BME280;37207;53.060;18.726;2023-09-30T01:52:25;100651.42;;;18.99;67.78
51147;BME280;37207;53.060;18.726;2023-09-30T01:54:52;100654.19;;;19.00;67.80
51147;BME280;37207;53.060;18.726;2023-09-30T01:57:18;100658.22;;;19.00;67.79
51147;BME280;37207;53.060;18.726;2023-09-30T01:59:45;100661.40;;;19.01;67.82
51147;BME280;37207;53.060;18.726;2023-09-30T02:02:11;100664.24;;;19.01;67.80
51147;BME280;37207;53.060;18.726;2023-09-30T02:04:38;100662.02;;;19.01;67.86
51147;BME280;37207;53.060;18.726;2023-09-30T02:07:04;100661.56;;;19.01;67.90
51147;BME280;37207;53.060;18.726;2023-09-30T02:09:31;100660.02;;;19.01;67.91
51147;BME280;37207;53.060;18.726;2023-09-30T02:12:00;100662.86;;;19.01;68.01
51147;BME280;37207;53.060;18.726;2023-09-30T02:14:26;100662.88;;;19.01;68.03
51147;BME280;37207;53.060;18.726;2023-09-30T02:16:53;100660.67;;;19.02;68.04
51147;BME280;37207;53.060;18.726;2023-09-30T02:19:19;100665.42;;;19.03;68.01
51147;BME280;37207;53.060;18.726;2023-09-30T02:21:48;100666.38;;;19.05;68.04
51147;BME280;37207;53.060;18.726;2023-09-30T02:24:14;100664.49;;;19.07;68.26
51147;BME280;37207;53.060;18.726;2023-09-30T02:26:41;100664.12;;;19.08;68.37
51147;BME280;37207;53.060;18.726;2023-09-30T02:29:08;100662.83;;;19.09;68.55
51147;BME280;37207;53.060;18.726;2023-09-30T02:31:35;100664.36;;;19.09;68.66
51147;BME280;37207;53.060;18.726;2023-09-30T02:34:01;100666.46;;;19.08;68.78
51147;BME280;37207;53.060;18.726;2023-09-30T02:36:29;100663.48;;;19.07;68.90
51147;BME280;37207;53.060;18.726;2023-09-30T02:38:55;100664.21;;;19.06;69.07
51147;BME280;37207;53.060;18.726;2023-09-30T02:41:22;100663.96;;;19.05;69.13
51147;BME280;37207;53.060;18.726;2023-09-30T02:43:49;100660.26;;;19.04;69.27
51147;BME280;37207;53.060;18.726;2023-09-30T02:46:16;100661.26;;;19.05;69.40
51147;BME280;37207;53.060;18.726;2023-09-30T02:48:43;100657.30;;;19.04;69.46
51147;BME280;37207;53.060;18.726;2023-09-30T02:51:10;100658.98;;;19.04;69.58
51147;BME280;37207;53.060;18.726;2023-09-30T02:53:37;100653.08;;;19.05;69.65
51147;BME280;37207;53.060;18.726;2023-09-30T02:56:04;100656.64;;;19.06;69.73
51147;BME280;37207;53.060;18.726;2023-09-30T02:58:31;100655.33;;;19.07;69.80
51147;BME280;37207;53.060;18.726;2023-09-30T03:00:58;100655.87;;;19.08;69.76
51147;BME280;37207;53.060;18.726;2023-09-30T03:03:25;100655.31;;;19.08;69.97
51147;BME280;37207;53.060;18.726;2023-09-30T03:05:52;100653.87;;;19.09;69.99
51147;BME280;37207;53.060;18.726;2023-09-30T03:08:20;100651.37;;;19.09;70.05
51147;BME280;37207;53.060;18.726;2023-09-30T03:10:48;100658.28;;;19.10;69.97
51147;BME280;37207;53.060;18.726;2023-09-30T03:13:15;100655.93;;;19.10;70.00
51147;BME280;37207;53.060;18.726;2023-09-30T03:15:41;100657.02;;;19.10;70.04
51147;BME280;37207;53.060;18.726;2023-09-30T03:18:08;100657.51;;;19.10;70.04
51147;BME280;37207;53.060;18.726;2023-09-30T03:20:34;100658.28;;;19.10;70.03
51147;BME280;37207;53.060;18.726;2023-09-30T03:23:02;100666.02;;;19.10;70.01
51147;BME280;37207;53.060;18.726;2023-09-30T03:25:31;100662.79;;;19.09;70.08
51147;BME280;37207;53.060;18.726;2023-09-30T03:27:57;100662.54;;;19.08;70.04
51147;BME280;37207;53.060;18.726;2023-09-30T03:30:24;100666.23;;;19.07;70.11
51147;BME280;37207;53.060;18.726;2023-09-30T03:32:50;100674.08;;;19.07;70.16
51147;BME280;37207;53.060;18.726;2023-09-30T03:35:17;100674.44;;;19.06;70.16
51147;BME280;37207;53.060;18.726;2023-09-30T03:37:44;100673.64;;;19.05;70.16
51147;BME280;37207;53.060;18.726;2023-09-30T03:40:12;100675.14;;;19.05;70.30
51147;BME280;37207;53.060;18.726;2023-09-30T03:42:41;100679.31;;;19.05;70.35
51147;BME280;37207;53.060;18.726;2023-09-30T03:45:11;100677.13;;;19.04;70.33
51147;BME280;37207;53.060;18.726;2023-09-30T03:47:40;100682.83;;;19.03;70.43
51147;BME280;37207;53.060;18.726;2023-09-30T03:50:07;100684.95;;;19.02;70.71
51147;BME280;37207;53.060;18.726;2023-09-30T03:52:41;100681.45;;;19.01;71.00
51147;BME280;37207;53.060;18.726;2023-09-30T03:55:11;100686.48;;;19.00;71.11
51147;BME280;37207;53.060;18.726;2023-09-30T03:57:38;100686.00;;;18.98;71.30
51147;BME280;37207;53.060;18.726;2023-09-30T04:00:05;100690.86;;;18.96;71.49
51147;BME280;37207;53.060;18.726;2023-09-30T04:02:38;100698.60;;;18.94;71.76
51147;BME280;37207;53.060;18.726;2023-09-30T04:05:05;100706.17;;;18.91;72.02
51147;BME280;37207;53.060;18.726;2023-09-30T04:07:32;100709.36;;;18.88;72.21
51147;BME280;37207;53.060;18.726;2023-09-30T04:09:59;100716.20;;;18.85;72.49
51147;BME280;37207;53.060;18.726;2023-09-30T04:12:27;100718.05;;;18.82;72.64
51147;BME280;37207;53.060;18.726;2023-09-30T04:14:55;100720.67;;;18.77;72.83
51147;BME280;37207;53.060;18.726;2023-09-30T04:17:21;100721.11;;;18.73;73.05
51147;BME280;37207;53.060;18.726;2023-09-30T04:19:49;100721.41;;;18.71;73.02
51147;BME280;37207;53.060;18.726;2023-09-30T04:22:18;100730.58;;;18.69;73.40
51147;BME280;37207;53.060;18.726;2023-09-30T04:24:45;100732.92;;;18.63;73.76
51147;BME280;37207;53.060;18.726;2023-09-30T04:27:12;100735.63;;;18.60;73.92
51147;BME280;37207;53.060;18.726;2023-09-30T04:29:38;100741.29;;;18.57;74.26
51147;BME280;37207;53.060;18.726;2023-09-30T04:32:05;100742.48;;;18.54;74.47
51147;BME280;37207;53.060;18.726;2023-09-30T04:34:32;100740.34;;;18.52;74.65
51147;BME280;37207;53.060;18.726;2023-09-30T04:36:59;100743.19;;;18.50;74.89
51147;BME280;37207;53.060;18.726;2023-09-30T04:39:26;100749.83;;;18.48;75.27
51147;BME280;37207;53.060;18.726;2023-09-30T04:41:52;100762.23;;;18.45;75.65
51147;BME280;37207;53.060;18.726;2023-09-30T04:44:19;100765.05;;;18.41;75.93
51147;BME280;37207;53.060;18.726;2023-09-30T04:46:46;100769.58;;;18.40;76.15
51147;BME280;37207;53.060;18.726;2023-09-30T04:49:14;100771.20;;;18.38;76.24
51147;BME280;37207;53.060;18.726;2023-09-30T04:51:41;100780.34;;;18.39;76.80
51147;BME280;37207;53.060;18.726;2023-09-30T04:54:07;100787.48;;;18.37;76.85
51147;BME280;37207;53.060;18.726;2023-09-30T04:56:35;100785.86;;;18.37;77.13
51147;BME280;37207;53.060;18.726;2023-09-30T04:59:02;100791.86;;;18.37;77.44
51147;BME280;37207;53.060;18.726;2023-09-30T05:01:30;100786.41;;;18.37;77.71
51147;BME280;37207;53.060;18.726;2023-09-30T05:03:56;100789.88;;;18.36;77.89
51147;BME280;37207;53.060;18.726;2023-09-30T05:06:23;100799.14;;;18.37;78.27
51147;BME280;37207;53.060;18.726;2023-09-30T05:08:50;100808.56;;;18.36;78.13
51147;BME280;37207;53.060;18.726;2023-09-30T05:11:16;100815.88;;;18.36;78.41
51147;BME280;37207;53.060;18.726;2023-09-30T05:13:43;100819.52;;;18.35;78.58
51147;BME280;37207;53.060;18.726;2023-09-30T05:16:09;100825.14;;;18.34;78.59
51147;BME280;37207;53.060;18.726;2023-09-30T05:18:36;100824.34;;;18.33;78.61
51147;BME280;37207;53.060;18.726;2023-09-30T05:21:04;100838.03;;;18.32;78.72
51147;BME280;37207;53.060;18.726;2023-09-30T05:23:31;100843.84;;;18.28;78.83
51147;BME280;37207;53.060;18.726;2023-09-30T05:25:58;100851.05;;;18.24;79.02
51147;BME280;37207;53.060;18.726;2023-09-30T05:28:25;100856.57;;;18.20;78.89
51147;BME280;37207;53.060;18.726;2023-09-30T05:30:52;100857.98;;;18.16;78.72
51147;BME280;37207;53.060;18.726;2023-09-30T05:33:19;100863.75;;;18.14;78.39
51147;BME280;37207;53.060;18.726;2023-09-30T05:35:46;100869.47;;;18.11;78.47
51147;BME280;37207;53.060;18.726;2023-09-30T05:38:13;100876.55;;;18.07;78.13
51147;BME280;37207;53.060;18.726;2023-09-30T05:40:40;100886.52;;;18.05;78.17
51147;BME280;37207;53.060;18.726;2023-09-30T05:43:08;100892.09;;;18.01;78.31
51147;BME280;37207;53.060;18.726;2023-09-30T05:45:34;100895.88;;;17.96;77.98
51147;BME280;37207;53.060;18.726;2023-09-30T05:48:02;100900.95;;;17.92;77.95
51147;BME280;37207;53.060;18.726;2023-09-30T05:50:32;100911.05;;;17.89;77.81
51147;BME280;37207;53.060;18.726;2023-09-30T05:53:00;100913.44;;;17.86;77.63
51147;BME280;37207;53.060;18.726;2023-09-30T05:55:27;100919.20;;;17.82;77.42
51147;BME280;37207;53.060;18.726;2023-09-30T05:57:54;100919.65;;;17.79;77.44
51147;BME280;37207;53.060;18.726;2023-09-30T06:00:21;100920.48;;;17.76;77.31
51147;BME280;37207;53.060;18.726;2023-09-30T06:02:54;100918.83;;;17.73;77.31
51147;BME280;37207;53.060;18.726;2023-09-30T06:05:21;100917.48;;;17.71;77.16
51147;BME280;37207;53.060;18.726;2023-09-30T06:08:01;100924.38;;;17.69;77.11
51147;BME280;37207;53.060;18.726;2023-09-30T06:10:29;100922.71;;;17.65;77.16
51147;BME280;37207;53.060;18.726;2023-09-30T06:12:56;100925.52;;;17.61;76.98
51147;BME280;37207;53.060;18.726;2023-09-30T06:15:26;100930.27;;;17.60;76.94
51147;BME280;37207;53.060;18.726;2023-09-30T06:17:57;100938.81;;;17.59;76.83
51147;BME280;37207;53.060;18.726;2023-09-30T06:20:24;100940.30;;;17.58;76.80
51147;BME280;37207;53.060;18.726;2023-09-30T06:22:52;100942.60;;;17.56;76.73
51147;BME280;37207;53.060;18.726;2023-09-30T06:25:22;100945.21;;;17.54;76.59
51147;BME280;37207;53.060;18.726;2023-09-30T06:27:50;100947.20;;;17.53;76.47
51147;BME280;37207;53.060;18.726;2023-09-30T06:30:17;100952.41;;;17.50;76.44
51147;BME280;37207;53.060;18.726;2023-09-30T06:32:45;100956.95;;;17.49;76.39
51147;BME280;37207;53.060;18.726;2023-09-30T06:35:12;100960.41;;;17.49;76.24
51147;BME280;37207;53.060;18.726;2023-09-30T06:37:40;100962.80;;;17.51;76.23
51147;BME280;37207;53.060;18.726;2023-09-30T06:40:08;100965.91;;;17.55;76.10
51147;BME280;37207;53.060;18.726;2023-09-30T06:42:36;100969.70;;;17.58;75.91
51147;BME280;37207;53.060;18.726;2023-09-30T06:45:04;100975.08;;;17.57;75.56
51147;BME280;37207;53.060;18.726;2023-09-30T06:47:37;100980.05;;;17.53;75.29
51147;BME280;37207;53.060;18.726;2023-09-30T06:50:08;100980.84;;;17.48;75.05
51147;BME280;37207;53.060;18.726;2023-09-30T06:52:36;100986.02;;;17.42;74.76
51147;BME280;37207;53.060;18.726;2023-09-30T06:55:05;100985.81;;;17.38;74.65
51147;BME280;37207;53.060;18.726;2023-09-30T06:57:36;100995.89;;;17.35;74.48
51147;BME280;37207;53.060;18.726;2023-09-30T07:00:13;101000.63;;;17.38;74.54
51147;BME280;37207;53.060;18.726;2023-09-30T07:02:40;101001.48;;;17.39;74.42
51147;BME280;37207;53.060;18.726;2023-09-30T07:05:08;101007.09;;;17.43;74.27
51147;BME280;37207;53.060;18.726;2023-09-30T07:07:35;101010.52;;;17.45;74.04
51147;BME280;37207;53.060;18.726;2023-09-30T07:10:03;101013.55;;;17.51;73.91
51147;BME280;37207;53.060;18.726;2023-09-30T07:12:30;101020.86;;;17.56;73.67
51147;BME280;37207;53.060;18.726;2023-09-30T07:14:58;101022.11;;;17.58;73.34
51147;BME280;37207;53.060;18.726;2023-09-30T07:17:25;101026.48;;;17.57;72.63
51147;BME280;37207;53.060;18.726;2023-09-30T07:19:51;101025.45;;;17.53;72.42
51147;BME280;37207;53.060;18.726;2023-09-30T07:22:18;101028.34;;;17.49;72.04
51147;BME280;37207;53.060;18.726;2023-09-30T07:24:45;101034.55;;;17.44;71.78
51147;BME280;37207;53.060;18.726;2023-09-30T07:27:11;101039.30;;;17.40;71.83
51147;BME280;37207;53.060;18.726;2023-09-30T07:29:38;101043.84;;;17.38;71.57
51147;BME280;37207;53.060;18.726;2023-09-30T07:32:07;101046.77;;;17.35;71.19
51147;BME280;37207;53.060;18.726;2023-09-30T07:34:34;101044.52;;;17.31;70.78
51147;BME280;37207;53.060;18.726;2023-09-30T07:37:02;101037.39;;;17.28;70.63
51147;BME280;37207;53.060;18.726;2023-09-30T07:39:29;101043.30;;;17.28;70.55
51147;BME280;37207;53.060;18.726;2023-09-30T07:41:56;101043.02;;;17.29;70.42
51147;BME280;37207;53.060;18.726;2023-09-30T07:44:23;101047.81;;;17.32;70.49
51147;BME280;37207;53.060;18.726;2023-09-30T07:46:49;101052.75;;;17.42;70.72
51147;BME280;37207;53.060;18.726;2023-09-30T07:49:16;101050.96;;;17.58;70.52
51147;BME280;37207;53.060;18.726;2023-09-30T07:51:42;101056.96;;;18.00;69.97
51147;BME280;37207;53.060;18.726;2023-09-30T07:54:09;101062.77;;;19.17;68.12
51147;BME280;37207;53.060;18.726;2023-09-30T07:56:35;101066.46;;;19.61;66.04
51147;BME280;37207;53.060;18.726;2023-09-30T07:59:02;101070.89;;;19.64;64.93
51147;BME280;37207;53.060;18.726;2023-09-30T08:01:29;101067.51;;;19.84;64.47
51147;BME280;37207;53.060;18.726;2023-09-30T08:03:56;101072.80;;;19.84;63.69
51147;BME280;37207;53.060;18.726;2023-09-30T08:06:23;101076.43;;;20.05;63.13
51147;BME280;37207;53.060;18.726;2023-09-30T08:08:49;101080.54;;;20.70;62.24
51147;BME280;37207;53.060;18.726;2023-09-30T08:11:18;101083.42;;;21.76;60.10
51147;BME280;37207;53.060;18.726;2023-09-30T08:13:45;101089.17;;;22.61;57.93
51147;BME280;37207;53.060;18.726;2023-09-30T08:16:11;101090.87;;;23.38;56.78
51147;BME280;37207;53.060;18.726;2023-09-30T08:18:38;101096.13;;;24.81;53.76
51147;BME280;37207;53.060;18.726;2023-09-30T08:21:09;101097.48;;;26.13;51.37
51147;BME280;37207;53.060;18.726;2023-09-30T08:23:37;101101.34;;;27.35;48.89
51147;BME280;37207;53.060;18.726;2023-09-30T08:26:05;101107.20;;;28.16;45.55
51147;BME280;37207;53.060;18.726;2023-09-30T08:28:32;101107.78;;;28.93;45.08
51147;BME280;37207;53.060;18.726;2023-09-30T08:31:05;101112.44;;;29.69;43.13
51147;BME280;37207;53.060;18.726;2023-09-30T08:33:32;101110.17;;;29.97;40.78
51147;BME280;37207;53.060;18.726;2023-09-30T08:36:05;101110.60;;;30.45;40.37
51147;BME280;37207;53.060;18.726;2023-09-30T08:38:37;101107.50;;;31.16;40.23
51147;BME280;37207;53.060;18.726;2023-09-30T08:41:03;101109.44;;;31.81;38.36
51147;BME280;37207;53.060;18.726;2023-09-30T08:43:30;101112.41;;;32.08;37.06
51147;BME280;37207;53.060;18.726;2023-09-30T08:46:00;101111.64;;;32.07;37.34
51147;BME280;37207;53.060;18.726;2023-09-30T08:48:28;101110.55;;;32.51;37.01
51147;BME280;37207;53.060;18.726;2023-09-30T08:50:55;101117.86;;;33.06;35.64
51147;BME280;37207;53.060;18.726;2023-09-30T08:53:23;101121.57;;;33.29;33.51
51147;BME280;37207;53.060;18.726;2023-09-30T08:55:53;101128.15;;;33.57;33.52
51147;BME280;37207;53.060;18.726;2023-09-30T08:58:24;101136.31;;;33.43;32.98
51147;BME280;37207;53.060;18.726;2023-09-30T09:00:52;101144.45;;;32.07;33.22
51147;BME280;37207;53.060;18.726;2023-09-30T09:03:19;101151.59;;;31.39;33.94
51147;BME280;37207;53.060;18.726;2023-09-30T09:05:47;101156.61;;;29.85;34.49
51147;BME280;37207;53.060;18.726;2023-09-30T09:08:19;101157.08;;;28.43;36.11
51147;BME280;37207;53.060;18.726;2023-09-30T09:10:55;101159.65;;;28.69;36.74
51147;BME280;37207;53.060;18.726;2023-09-30T09:13:26;101168.81;;;29.59;35.79
51147;BME280;37207;53.060;18.726;2023-09-30T09:16:06;101167.80;;;30.28;35.07
51147;BME280;37207;53.060;18.726;2023-09-30T09:18:33;101156.88;;;31.27;34.30
51147;BME280;37207;53.060;18.726;2023-09-30T09:21:19;101162.65;;;31.66;32.82
51147;BME280;37207;53.060;18.726;2023-09-30T09:23:48;101169.81;;;30.29;33.30
51147;BME280;37207;53.060;18.726;2023-09-30T09:26:29;101167.30;;;29.84;34.54
51147;BME280;37207;53.060;18.726;2023-09-30T09:29:04;101166.01;;;30.55;34.34
51147;BME280;37207;53.060;18.726;2023-09-30T09:31:35;101174.11;;;30.46;34.27
51147;BME280;37207;53.060;18.726;2023-09-30T09:37:23;101184.76;;;30.24;33.67
51147;BME280;37207;53.060;18.726;2023-09-30T09:43:42;101183.50;;;28.57;36.06
51147;BME280;37207;53.060;18.726;2023-09-30T09:46:32;101186.05;;;28.05;36.67
51147;BME280;37207;53.060;18.726;2023-09-30T09:49:05;101193.27;;;27.66;37.03
51147;BME280;37207;53.060;18.726;2023-09-30T09:51:35;101186.27;;;27.34;37.34
51147;BME280;37207;53.060;18.726;2023-09-30T09:54:16;101189.09;;;27.18;37.30
51147;BME280;37207;53.060;18.726;2023-09-30T09:56:52;101190.45;;;27.01;37.13
51147;BME280;37207;53.060;18.726;2023-09-30T09:59:39;101193.02;;;26.40;37.54
51147;BME280;37207;53.060;18.726;2023-09-30T10:02:35;101194.44;;;26.26;37.86
51147;BME280;37207;53.060;18.726;2023-09-30T10:05:07;101188.05;;;27.32;36.85
51147;BME280;37207;53.060;18.726;2023-09-30T10:08:07;101195.40;;;27.40;36.27
51147;BME280;37207;53.060;18.726;2023-09-30T10:10:40;101192.23;;;26.58;37.58
51147;BME280;37207;53.060;18.726;2023-09-30T10:16:07;101204.33;;;25.57;39.20
51147;BME280;37207;53.060;18.726;2023-09-30T10:21:38;101203.14;;;24.14;40.78
51147;BME280;37207;53.060;18.726;2023-09-30T10:41:00;101207.42;;;23.00;45.83
51147;BME280;37207;53.060;18.726;2023-09-30T10:43:38;101213.83;;;23.21;44.65
51147;BME280;37207;53.060;18.726;2023-09-30T10:48:56;101208.73;;;22.73;43.91
51147;BME280;37207;53.060;18.726;2023-09-30T10:51:38;101211.63;;;22.60;44.44
51147;BME280;37207;53.060;18.726;2023-09-30T10:54:07;101207.39;;;22.72;44.96
51147;BME280;37207;53.060;18.726;2023-09-30T10:56:40;101209.68;;;23.15;44.88
51147;BME280;37207;53.060;18.726;2023-09-30T10:59:10;101214.27;;;23.55;43.90
51147;BME280;37207;53.060;18.726;2023-09-30T11:01:40;101215.15;;;23.56;43.19
51147;BME280;37207;53.060;18.726;2023-09-30T11:04:14;101221.89;;;23.46;43.13
51147;BME280;37207;53.060;18.726;2023-09-30T11:07:06;101222.00;;;23.28;43.26
51147;BME280;37207;53.060;18.726;2023-09-30T11:09:38;101224.31;;;23.07;43.10
51147;BME280;37207;53.060;18.726;2023-09-30T11:12:23;101224.64;;;22.83;43.64
51147;BME280;37207;53.060;18.726;2023-09-30T11:15:01;101225.89;;;22.67;44.29
51147;BME280;37207;53.060;18.726;2023-09-30T11:17:32;101225.30;;;23.09;44.60
51147;BME280;37207;53.060;18.726;2023-09-30T11:20:04;101222.64;;;23.27;44.56
51147;BME280;37207;53.060;18.726;2023-09-30T11:22:36;101224.02;;;23.22;44.11
51147;BME280;37207;53.060;18.726;2023-09-30T11:25:15;101221.17;;;23.91;43.35
51147;BME280;37207;53.060;18.726;2023-09-30T11:27:48;101229.84;;;24.38;41.85
51147;BME280;37207;53.060;18.726;2023-09-30T11:30:19;101229.07;;;24.44;41.29
51147;BME280;37207;53.060;18.726;2023-09-30T11:32:58;101224.48;;;24.07;41.76
51147;BME280;37207;53.060;18.726;2023-09-30T11:35:30;101226.52;;;23.53;42.24
51147;BME280;37207;53.060;18.726;2023-09-30T11:38:03;101226.23;;;22.98;42.31
51147;BME280;37207;53.060;18.726;2023-09-30T11:40:35;101225.94;;;22.66;43.05
51147;BME280;37207;53.060;18.726;2023-09-30T11:43:09;101232.83;;;22.58;43.44
51147;BME280;37207;53.060;18.726;2023-09-30T11:45:43;101230.61;;;22.47;43.73
51147;BME280;37207;53.060;18.726;2023-09-30T11:48:18;101227.88;;;22.32;43.82
51147;BME280;37207;53.060;18.726;2023-09-30T11:50:52;101228.29;;;22.09;44.20
51147;BME280;37207;53.060;18.726;2023-09-30T11:53:24;101225.73;;;22.00;44.46
51147;BME280;37207;53.060;18.726;2023-09-30T11:55:52;101228.05;;;21.95;44.06
51147;BME280;37207;53.060;18.726;2023-09-30T11:58:26;101226.61;;;21.81;44.65
51147;BME280;37207;53.060;18.726;2023-09-30T12:00:59;101227.02;;;21.64;44.69
51147;BME280;37207;53.060;18.726;2023-09-30T12:03:37;101224.86;;;21.44;44.65
51147;BME280;37207;53.060;18.726;2023-09-30T12:06:09;101227.71;;;21.24;44.89
51147;BME280;37207;53.060;18.726;2023-09-30T12:08:43;101227.70;;;21.11;45.20
51147;BME280;37207;53.060;18.726;2023-09-30T12:11:19;101231.82;;;21.23;45.46
51147;BME280;37207;53.060;18.726;2023-09-30T12:13:50;101229.75;;;21.63;45.08
51147;BME280;37207;53.060;18.726;2023-09-30T12:16:20;101232.13;;;21.85;44.59
51147;BME280;37207;53.060;18.726;2023-09-30T12:18:52;101233.24;;;21.85;44.71
51147;BME280;37207;53.060;18.726;2023-09-30T12:21:22;101237.62;;;21.77;44.69
51147;BME280;37207;53.060;18.726;2023-09-30T12:23:54;101240.49;;;21.69;44.90
51147;BME280;37207;53.060;18.726;2023-09-30T12:26:24;101242.27;;;21.70;45.14
51147;BME280;37207;53.060;18.726;2023-09-30T12:28:56;101242.84;;;21.74;45.33
51147;BME280;37207;53.060;18.726;2023-09-30T12:31:27;101245.67;;;21.77;45.36
51147;BME280;37207;53.060;18.726;2023-09-30T12:33:57;101242.59;;;21.76;45.28
51147;BME280;37207;53.060;18.726;2023-09-30T12:36:28;101239.73;;;21.68;45.27
51147;BME280;37207;53.060;18.726;2023-09-30T12:39:00;101236.61;;;21.57;45.32
51147;BME280;37207;53.060;18.726;2023-09-30T12:41:27;101240.77;;;21.54;45.57
51147;BME280;37207;53.060;18.726;2023-09-30T12:43:59;101240.05;;;21.50;45.48
51147;BME280;37207;53.060;18.726;2023-09-30T12:46:30;101234.95;;;21.44;45.54
51147;BME280;37207;53.060;18.726;2023-09-30T12:48:57;101230.33;;;21.40;45.79
51147;BME280;37207;53.060;18.726;2023-09-30T12:51:24;101241.73;;;21.38;45.70
51147;BME280;37207;53.060;18.726;2023-09-30T12:53:51;101242.38;;;21.32;45.63
51147;BME280;37207;53.060;18.726;2023-09-30T12:56:17;101239.34;;;21.27;45.85
51147;BME280;37207;53.060;18.726;2023-09-30T12:59:09;101241.66;;;21.31;45.99
51147;BME280;37207;53.060;18.726;2023-09-30T13:01:40;101240.69;;;21.31;45.66
51147;BME280;37207;53.060;18.726;2023-09-30T13:04:10;101243.73;;;21.34;45.75
51147;BME280;37207;53.060;18.726;2023-09-30T13:06:38;101242.58;;;21.34;45.50
51147;BME280;37207;53.060;18.726;2023-09-30T13:09:05;101238.64;;;21.28;45.70
51147;BME280;37207;53.060;18.726;2023-09-30T13:11:36;101238.45;;;21.20;45.70
51147;BME280;37207;53.060;18.726;2023-09-30T13:14:03;101234.33;;;21.19;45.91
51147;BME280;37207;53.060;18.726;2023-09-30T13:16:34;101240.33;;;21.23;46.08
51147;BME280;37207;53.060;18.726;2023-09-30T13:19:00;101243.38;;;21.30;45.79
51147;BME280;37207;53.060;18.726;2023-09-30T13:21:28;101239.14;;;21.45;45.74
51147;BME280;37207;53.060;18.726;2023-09-30T13:23:55;101230.12;;;21.66;45.73